createdAt,value
2022-12-29T00:00:18.480Z,9
2022-12-29T00:01:25.721Z,8.9
2022-12-29T00:02:32.716Z,9.1
2022-12-29T00:03:40.029Z,8.6
2022-12-29T00:04:46.996Z,8.2
2022-12-29T00:05:54.177Z,8.2
2022-12-29T00:07:01.608Z,9
2022-12-29T00:08:08.958Z,9.3
2022-12-29T00:09:15.862Z,8.2
2022-12-29T00:10:22.594Z,8.1
2022-12-29T00:11:29.930Z,9.6
2022-12-29T00:12:36.855Z,8.8
2022-12-29T00:13:49.176Z,9.3
2022-12-29T00:15:01.457Z,9.7
2022-12-29T00:16:13.433Z,11
2022-12-29T00:17:20.606Z,10.7
2022-12-29T00:18:27.783Z,10.7
2022-12-29T00:19:34.920Z,11.5
2022-12-29T00:20:47.248Z,10.2
2022-12-29T00:21:59.497Z,10.5
2022-12-29T00:23:14.048Z,9.7
2022-12-29T00:24:26.312Z,9.4
2022-12-29T00:25:38.697Z,9.1
2022-12-29T00:26:50.896Z,7.6
2022-12-29T00:28:06.909Z,7.2
2022-12-29T00:29:18.731Z,6.1
2022-12-29T00:30:30.947Z,7
2022-12-29T00:31:43.353Z,6
2022-12-29T00:32:55.596Z,6.3
2022-12-29T00:34:15.672Z,6.3
2022-12-29T00:35:27.916Z,6.8
2022-12-29T00:36:40.432Z,6.8
2022-12-29T00:37:47.365Z,6.4
2022-12-29T00:38:59.768Z,6.3
2022-12-29T00:40:12.170Z,6.6
2022-12-29T00:41:24.402Z,7.3
2022-12-29T00:42:36.666Z,7
2022-12-29T00:43:48.994Z,7
2022-12-29T00:45:01.363Z,6.7
2022-12-29T00:46:10.717Z,6.1
2022-12-29T00:47:15.841Z,6.5
2022-12-29T00:48:23.005Z,6
2022-12-29T00:49:35.260Z,5.9
2022-12-29T00:50:42.457Z,6.5
2022-12-29T00:51:49.626Z,5.6
2022-12-29T00:52:56.803Z,6
2022-12-29T00:54:04.103Z,5.9
2022-12-29T00:55:10.940Z,5.4
2022-12-29T00:56:18.015Z,4.6
2022-12-29T00:57:25.212Z,5.2
2022-12-29T00:58:32.323Z,5.2
2022-12-29T00:59:39.568Z,6
2022-12-29T01:00:46.743Z,5.7
2022-12-29T01:01:53.959Z,5.6
2022-12-29T01:03:01.168Z,5.9
2022-12-29T01:04:08.365Z,6
2022-12-29T01:05:15.517Z,6.9
2022-12-29T01:06:22.657Z,5.8
2022-12-29T01:07:29.848Z,6.1
2022-12-29T01:08:37.033Z,5.8
2022-12-29T01:09:44.143Z,6.2
2022-12-29T01:10:56.366Z,6.6
2022-12-29T01:12:11.986Z,7.5
2022-12-29T01:13:19.368Z,7
2022-12-29T01:14:26.315Z,7.7
2022-12-29T01:15:33.505Z,7.2
2022-12-29T01:16:40.600Z,7.1
2022-12-29T01:17:47.792Z,6.9
2022-12-29T01:18:54.959Z,7.6
2022-12-29T01:20:02.092Z,7
2022-12-29T01:21:09.805Z,6.4
2022-12-29T01:22:16.680Z,6.3
2022-12-29T01:23:23.852Z,6.6
2022-12-29T01:24:31.782Z,6.3
2022-12-29T01:25:38.652Z,6.5
2022-12-29T01:26:45.856Z,6.2
2022-12-29T01:27:53.121Z,6.4
2022-12-29T01:29:00.183Z,6.2
2022-12-29T01:30:07.068Z,6.2
2022-12-29T01:31:14.393Z,6.9
2022-12-29T01:32:21.364Z,6.2
2022-12-29T01:33:28.557Z,6.4
2022-12-29T01:34:35.819Z,5.9
2022-12-29T01:35:42.892Z,6.5
2022-12-29T01:36:50.010Z,6.3
2022-12-29T01:37:57.156Z,5.9
2022-12-29T01:39:04.329Z,6.2
2022-12-29T01:40:11.263Z,5.9
2022-12-29T01:41:18.396Z,5.9
2022-12-29T01:42:25.507Z,6.2
2022-12-29T01:43:32.216Z,5.9
2022-12-29T01:44:49.606Z,6.9
2022-12-29T01:45:59.901Z,6.1
2022-12-29T01:47:07.253Z,7.2
2022-12-29T01:48:14.488Z,6.7
2022-12-29T01:49:21.429Z,7.2
2022-12-29T01:50:28.602Z,7
2022-12-29T01:51:43.472Z,7.7
2022-12-29T01:52:55.831Z,6.9
2022-12-29T01:54:08.727Z,7.1
2022-12-29T01:55:16.033Z,7.2
2022-12-29T01:56:23.092Z,7.8
2022-12-29T01:57:30.254Z,7.8
2022-12-29T01:58:37.374Z,8.8
2022-12-29T01:59:44.552Z,8.9
2022-12-29T02:00:54.336Z,7.3
2022-12-29T02:02:01.468Z,7.9
2022-12-29T02:03:08.497Z,7.2
2022-12-29T02:04:15.652Z,6.9
2022-12-29T02:05:22.676Z,6.7
2022-12-29T02:06:37.948Z,6.3
2022-12-29T02:07:47.745Z,6.2
2022-12-29T02:08:54.910Z,6
2022-12-29T02:10:02.082Z,5.8
2022-12-29T02:11:09.339Z,5.7
2022-12-29T02:12:16.529Z,6.1
2022-12-29T02:13:23.727Z,5.6
2022-12-29T02:14:30.876Z,5.9
2022-12-29T02:15:38.060Z,6.2
2022-12-29T02:16:50.880Z,5.8
2022-12-29T02:18:08.516Z,5.4
2022-12-29T02:19:23.804Z,5.5
2022-12-29T02:20:41.099Z,5.8
2022-12-29T02:21:58.480Z,5.7
2022-12-29T02:23:13.598Z,5.5
2022-12-29T02:24:28.423Z,6.1
2022-12-29T02:25:45.767Z,5.7
2022-12-29T02:26:58.016Z,6.4
2022-12-29T02:28:13.147Z,6.1
2022-12-29T02:29:30.675Z,6.8
2022-12-29T02:30:42.871Z,6.7
2022-12-29T02:31:49.941Z,6.4
2022-12-29T02:32:57.034Z,6.8
2022-12-29T02:34:04.271Z,7.5
2022-12-29T02:35:11.079Z,7.1
2022-12-29T02:36:18.211Z,8
2022-12-29T02:37:27.944Z,7.7
2022-12-29T02:38:40.261Z,6.4
2022-12-29T02:39:57.635Z,6
2022-12-29T02:41:10.116Z,5.5
2022-12-29T02:42:24.886Z,5.6
2022-12-29T02:43:34.643Z,4.8
2022-12-29T02:44:46.947Z,4.6
2022-12-29T02:45:59.352Z,4.9
2022-12-29T02:47:16.791Z,5
2022-12-29T02:48:26.563Z,5.1
2022-12-29T02:49:36.186Z,4.9
2022-12-29T02:50:43.418Z,4.9
2022-12-29T02:51:55.650Z,4.9
2022-12-29T02:53:02.894Z,4.5
2022-12-29T02:54:09.667Z,4.5
2022-12-29T02:55:21.961Z,5
2022-12-29T02:56:29.127Z,4.4
2022-12-29T02:57:36.500Z,5.1
2022-12-29T02:58:43.463Z,4.8
2022-12-29T02:59:50.658Z,5.1
2022-12-29T03:01:03.931Z,5.6
2022-12-29T03:02:16.111Z,5.8
2022-12-29T03:03:33.403Z,5.4
2022-12-29T03:04:50.706Z,5.9
2022-12-29T03:06:05.554Z,6.1
2022-12-29T03:07:22.591Z,5.3
2022-12-29T03:08:34.898Z,4.7
2022-12-29T03:09:47.282Z,4.7
2022-12-29T03:10:54.305Z,4.6
2022-12-29T03:12:03.983Z,5
2022-12-29T03:13:21.579Z,4.9
2022-12-29T03:14:44.177Z,5.4
2022-12-29T03:15:56.392Z,4.9
2022-12-29T03:17:09.390Z,5.2
2022-12-29T03:18:16.589Z,5.2
2022-12-29T03:19:26.155Z,5.2
2022-12-29T03:20:43.718Z,5.7
2022-12-29T03:21:53.429Z,5.5
2022-12-29T03:23:05.618Z,5.8
2022-12-29T03:24:12.573Z,5.8
2022-12-29T03:25:19.610Z,5.7
2022-12-29T03:26:26.765Z,5.5
2022-12-29T03:27:33.877Z,5.9
2022-12-29T03:28:46.193Z,5.6
2022-12-29T03:29:53.351Z,5.8
2022-12-29T03:31:00.599Z,6.1
2022-12-29T03:32:07.850Z,5.7
2022-12-29T03:33:15.161Z,6.4
2022-12-29T03:34:22.127Z,5.9
2022-12-29T03:35:29.288Z,6.3
2022-12-29T03:36:36.421Z,7.1
2022-12-29T03:37:43.652Z,7.2
2022-12-29T03:39:01.239Z,6.2
2022-12-29T03:40:08.273Z,7.2
2022-12-29T03:41:15.440Z,6.9
2022-12-29T03:42:22.667Z,6.1
2022-12-29T03:43:29.816Z,7.3
2022-12-29T03:44:37.085Z,5.9
2022-12-29T03:45:44.283Z,5.8
2022-12-29T03:46:51.276Z,6.3
2022-12-29T03:47:58.426Z,6.4
2022-12-29T03:49:05.581Z,6.3
2022-12-29T03:50:12.409Z,6.2
2022-12-29T03:51:19.661Z,6.6
2022-12-29T03:52:26.770Z,6.3
2022-12-29T03:53:33.916Z,7.8
2022-12-29T03:54:44.141Z,7.3
2022-12-29T03:55:51.236Z,7.4
2022-12-29T03:56:58.463Z,7.8
2022-12-29T03:58:05.529Z,7.6
2022-12-29T03:59:12.637Z,6.5
2022-12-29T04:00:19.589Z,6.9
2022-12-29T04:01:26.893Z,7.1
2022-12-29T04:02:33.997Z,6.8
2022-12-29T04:03:41.263Z,6.7
2022-12-29T04:04:48.287Z,6.9
2022-12-29T04:05:55.477Z,6.5
2022-12-29T04:07:02.580Z,6.7
2022-12-29T04:08:09.986Z,6.7
2022-12-29T04:09:17.133Z,5.8
2022-12-29T04:10:24.233Z,6.2
2022-12-29T04:11:33.312Z,5.7
2022-12-29T04:12:38.673Z,6.4
2022-12-29T04:13:45.822Z,5.7
2022-12-29T04:14:53.006Z,6
2022-12-29T04:16:00.305Z,5.3
2022-12-29T04:17:07.401Z,5
2022-12-29T04:18:14.596Z,5.2
2022-12-29T04:19:21.950Z,5.6
2022-12-29T04:20:28.859Z,5.4
2022-12-29T04:21:41.293Z,5.6
2022-12-29T04:22:48.308Z,5.5
2022-12-29T04:23:55.511Z,5.1
2022-12-29T04:25:02.686Z,5.7
2022-12-29T04:26:10.150Z,5.6
2022-12-29T04:27:17.177Z,5.8
2022-12-29T04:28:24.337Z,6
2022-12-29T04:29:31.416Z,6.2
2022-12-29T04:30:38.582Z,6.5
2022-12-29T04:31:45.897Z,6.6
2022-12-29T04:32:52.800Z,6.1
2022-12-29T04:34:00.074Z,5.8
2022-12-29T04:35:06.962Z,5.4
2022-12-29T04:36:14.061Z,5.6
2022-12-29T04:37:21.232Z,5.4
2022-12-29T04:38:28.291Z,6.2
2022-12-29T04:39:35.494Z,5.7
2022-12-29T04:40:42.858Z,6.4
2022-12-29T04:41:49.877Z,5.7
2022-12-29T04:42:57.027Z,7.4
2022-12-29T04:44:04.167Z,7.1
2022-12-29T04:45:10.962Z,7.5
2022-12-29T04:46:18.359Z,6.2
2022-12-29T04:47:25.426Z,7.1
2022-12-29T04:48:32.554Z,7.2
2022-12-29T04:49:39.670Z,7
2022-12-29T04:50:46.838Z,6.7
2022-12-29T04:51:54.081Z,7
2022-12-29T04:53:01.294Z,6.5
2022-12-29T04:54:08.066Z,6
2022-12-29T04:55:15.440Z,6.3
2022-12-29T04:56:22.356Z,6.2
2022-12-29T04:57:29.519Z,6.1
2022-12-29T04:58:36.675Z,5.2
2022-12-29T04:59:43.822Z,5.8
2022-12-29T05:00:50.947Z,7.1
2022-12-29T05:01:58.272Z,6
2022-12-29T05:03:05.422Z,6.9
2022-12-29T05:04:12.184Z,6.2
2022-12-29T05:05:19.357Z,5.7
2022-12-29T05:06:26.511Z,6.1
2022-12-29T05:07:33.663Z,5.3
2022-12-29T05:08:40.773Z,6.3
2022-12-29T05:09:47.952Z,6.1
2022-12-29T05:10:55.091Z,5.8
2022-12-29T05:12:02.222Z,6.3
2022-12-29T05:13:09.420Z,6
2022-12-29T05:14:16.298Z,5.3
2022-12-29T05:15:23.467Z,6
2022-12-29T05:16:30.636Z,6
2022-12-29T05:18:02.662Z,6
2022-12-29T05:19:09.681Z,5.6
2022-12-29T05:20:16.698Z,5.7
2022-12-29T05:21:23.828Z,5.5
2022-12-29T05:22:30.984Z,5.4
2022-12-29T05:23:37.620Z,4.7
2022-12-29T05:24:44.718Z,5.4
2022-12-29T05:25:51.406Z,5.9
2022-12-29T05:26:58.600Z,5.3
2022-12-29T05:28:05.695Z,5.2
2022-12-29T05:29:12.541Z,5.7
2022-12-29T05:30:19.220Z,5.8
2022-12-29T05:31:26.463Z,5.8
2022-12-29T05:32:33.475Z,5.7
2022-12-29T05:33:40.175Z,6
2022-12-29T05:34:47.303Z,6.4
2022-12-29T05:35:53.967Z,6.8
2022-12-29T05:37:01.236Z,7.3
2022-12-29T05:38:08.309Z,7.4
2022-12-29T05:39:15.215Z,7.2
2022-12-29T05:40:22.320Z,7.3
2022-12-29T05:41:29.424Z,7.4
2022-12-29T05:42:36.156Z,7.1
2022-12-29T05:43:43.359Z,6.7
2022-12-29T05:44:49.989Z,6.6
2022-12-29T05:45:57.253Z,7.4
2022-12-29T05:47:04.365Z,6.9
2022-12-29T05:48:11.194Z,7.5
2022-12-29T05:49:18.512Z,7.2
2022-12-29T05:50:25.555Z,8
2022-12-29T05:51:32.877Z,8
2022-12-29T05:52:39.763Z,7.4
2022-12-29T05:53:46.883Z,7.5
2022-12-29T05:54:53.991Z,7.4
2022-12-29T05:56:01.201Z,7.6
2022-12-29T05:57:08.187Z,7.6
2022-12-29T05:58:15.260Z,7
2022-12-29T05:59:22.560Z,7.5
2022-12-29T06:00:29.562Z,7.5
2022-12-29T06:01:36.859Z,7.1
2022-12-29T06:02:44.013Z,8
2022-12-29T06:03:51.189Z,8.4
2022-12-29T06:04:57.691Z,8
2022-12-29T06:06:04.788Z,8.5
2022-12-29T06:07:11.690Z,9
2022-12-29T06:08:18.923Z,9.4
2022-12-29T06:09:25.994Z,8.4
2022-12-29T06:10:33.126Z,9.2
2022-12-29T06:11:40.300Z,7
2022-12-29T06:12:47.455Z,8.1
2022-12-29T06:13:54.107Z,8.3
2022-12-29T06:15:01.372Z,8.9
2022-12-29T06:16:08.749Z,9.2
2022-12-29T06:17:15.715Z,9
2022-12-29T06:18:22.869Z,8.9
2022-12-29T06:19:30.036Z,9.4
2022-12-29T06:20:37.213Z,8.4
2022-12-29T06:21:44.438Z,8.6
2022-12-29T06:22:51.492Z,9.1
2022-12-29T06:23:58.633Z,9.2
2022-12-29T06:25:05.785Z,9.3
2022-12-29T06:26:12.689Z,8.5
2022-12-29T06:27:19.828Z,8.3
2022-12-29T06:28:27.166Z,9.5
2022-12-29T06:29:34.163Z,8.7
2022-12-29T06:30:41.360Z,8.3
2022-12-29T06:31:48.494Z,9.3
2022-12-29T06:32:55.659Z,7.9
2022-12-29T06:34:08.038Z,9.1
2022-12-29T06:35:09.708Z,8.9
2022-12-29T06:36:16.771Z,9.4
2022-12-29T06:37:23.978Z,9.5
2022-12-29T06:38:31.140Z,9.4
2022-12-29T06:39:37.861Z,9.4
2022-12-29T06:40:44.995Z,10.4
2022-12-29T06:41:51.627Z,10.5
2022-12-29T06:42:58.735Z,9.3
2022-12-29T06:44:05.906Z,10
2022-12-29T06:45:12.803Z,9.7
2022-12-29T06:46:19.659Z,10.1
2022-12-29T06:47:26.707Z,9.4
2022-12-29T06:48:33.835Z,9
2022-12-29T06:49:40.960Z,9
2022-12-29T06:50:47.607Z,9.6
2022-12-29T06:51:54.324Z,9.1
2022-12-29T06:53:01.631Z,10.4
2022-12-29T06:54:09.006Z,10.1
2022-12-29T06:55:15.960Z,9.1
2022-12-29T06:56:22.648Z,8.8
2022-12-29T06:57:29.573Z,8.6
2022-12-29T06:58:36.558Z,8.5
2022-12-29T06:59:43.570Z,8
2022-12-29T07:00:50.333Z,8.4
2022-12-29T07:01:57.563Z,7.8
2022-12-29T07:03:04.746Z,7.9
2022-12-29T07:04:11.462Z,7.5
2022-12-29T07:05:18.648Z,7.6
2022-12-29T07:06:25.764Z,7.6
2022-12-29T07:07:32.390Z,6.8
2022-12-29T07:08:39.606Z,7.3
2022-12-29T07:09:46.746Z,7.5
2022-12-29T07:10:54.087Z,7.2
2022-12-29T07:12:01.107Z,7.2
2022-12-29T07:13:07.939Z,7.2
2022-12-29T07:14:14.567Z,7.3
2022-12-29T07:15:21.790Z,7.5
2022-12-29T07:16:28.975Z,7.7
2022-12-29T07:17:36.360Z,8.3
2022-12-29T07:18:43.230Z,8.9
2022-12-29T07:19:50.410Z,8
2022-12-29T07:20:57.558Z,7.8
2022-12-29T07:22:04.709Z,8.5
2022-12-29T07:23:11.620Z,8.4
2022-12-29T07:24:18.875Z,9
2022-12-29T07:25:25.956Z,9.6
2022-12-29T07:26:36.407Z,10.5
2022-12-29T07:27:40.220Z,8.3
2022-12-29T07:28:46.922Z,10
2022-12-29T07:29:54.127Z,8.2
2022-12-29T07:31:01.212Z,8.8
2022-12-29T07:32:08.198Z,8.3
2022-12-29T07:33:15.187Z,7.7
2022-12-29T07:34:22.291Z,7.5
2022-12-29T07:35:29.013Z,8.1
2022-12-29T07:36:35.652Z,7.2
2022-12-29T07:37:42.783Z,7.7
2022-12-29T07:38:49.924Z,7.3
2022-12-29T07:39:57.062Z,7.7
2022-12-29T07:41:04.284Z,8.5
2022-12-29T07:42:11.083Z,8.2
2022-12-29T07:43:18.223Z,8.6
2022-12-29T07:44:25.394Z,8.8
2022-12-29T07:45:32.536Z,8.5
2022-12-29T07:46:54.761Z,9.1
2022-12-29T07:47:46.538Z,8.4
2022-12-29T07:48:53.592Z,8
2022-12-29T07:50:00.653Z,8
2022-12-29T07:51:08.022Z,7.8
2022-12-29T07:52:14.724Z,7.5
2022-12-29T07:53:21.889Z,7.4
2022-12-29T07:54:29.042Z,7.7
2022-12-29T07:55:36.166Z,7.2
2022-12-29T07:56:42.868Z,7.3
2022-12-29T07:57:49.537Z,6.2
2022-12-29T07:58:56.719Z,7.5
2022-12-29T08:00:03.906Z,7
2022-12-29T08:01:11.623Z,7.2
2022-12-29T08:02:18.580Z,7.6
2022-12-29T08:03:25.482Z,7.6
2022-12-29T08:04:32.682Z,7.9
2022-12-29T08:05:40.686Z,7.7
2022-12-29T08:06:48.583Z,7.9
2022-12-29T08:07:56.525Z,9
2022-12-29T08:09:11.252Z,9.4
2022-12-29T08:10:10.887Z,8.6
2022-12-29T08:11:19.525Z,8.3
2022-12-29T08:12:27.641Z,9
2022-12-29T08:13:34.675Z,9.4
2022-12-29T08:14:41.865Z,8.9
2022-12-29T08:15:50.058Z,7.8
2022-12-29T08:16:57.357Z,9.1
2022-12-29T08:18:04.482Z,8.1
2022-12-29T08:19:11.353Z,7.8
2022-12-29T08:20:18.540Z,7.9
2022-12-29T08:21:25.661Z,8.1
2022-12-29T08:22:33.592Z,8.3
2022-12-29T08:23:41.555Z,7.3
2022-12-29T08:24:49.028Z,7.2
2022-12-29T08:25:57.129Z,7.3
2022-12-29T08:27:11.998Z,7.5
2022-12-29T08:28:12.601Z,7.4
2022-12-29T08:29:19.513Z,7.3
2022-12-29T08:30:27.544Z,7.3
2022-12-29T08:31:34.569Z,7.9
2022-12-29T08:32:41.498Z,7.5
2022-12-29T08:33:49.455Z,8.5
2022-12-29T08:34:56.707Z,8.5
2022-12-29T08:36:05.838Z,8.6
2022-12-29T08:37:14.525Z,8.9
2022-12-29T08:38:21.618Z,8.9
2022-12-29T08:39:28.703Z,8.9
2022-12-29T08:40:36.120Z,8.9
2022-12-29T08:41:43.207Z,9.3
2022-12-29T08:42:50.509Z,8.7
2022-12-29T08:43:58.640Z,8.5
2022-12-29T08:45:05.902Z,9.9
2022-12-29T08:46:13.066Z,8.9
2022-12-29T08:47:20.121Z,8.7
2022-12-29T08:48:28.245Z,8.9
2022-12-29T08:49:36.480Z,9
2022-12-29T08:50:44.555Z,9
2022-12-29T08:51:51.952Z,8.8
2022-12-29T08:52:58.916Z,8.3
2022-12-29T08:54:07.320Z,9.2
2022-12-29T08:55:14.985Z,8.8
2022-12-29T08:56:23.271Z,8.4
2022-12-29T08:57:30.742Z,8.5
2022-12-29T08:58:38.245Z,9.8
2022-12-29T08:59:45.140Z,9.2
2022-12-29T09:00:52.445Z,10.2
2022-12-29T09:01:59.902Z,10.2
2022-12-29T09:03:06.983Z,9.9
2022-12-29T09:04:15.880Z,9.7
2022-12-29T09:05:20.819Z,9.3
2022-12-29T09:06:29.137Z,9.6
2022-12-29T09:07:36.315Z,9.6
2022-12-29T09:08:43.224Z,10
2022-12-29T09:09:51.352Z,9.5
2022-12-29T09:10:58.494Z,9.8
2022-12-29T09:12:12.493Z,9.8
2022-12-29T09:13:19.953Z,9.6
2022-12-29T09:14:26.968Z,9.2
2022-12-29T09:15:34.061Z,9.4
2022-12-29T09:16:41.309Z,9.7
2022-12-29T09:17:53.756Z,9
2022-12-29T09:19:02.379Z,9.8
2022-12-29T09:20:09.128Z,10.5
2022-12-29T09:21:16.463Z,9
2022-12-29T09:22:23.481Z,10
2022-12-29T09:23:30.569Z,10.2
2022-12-29T09:24:38.205Z,10.1
2022-12-29T09:25:45.362Z,10.2
2022-12-29T09:26:52.457Z,10.9
2022-12-29T09:27:59.640Z,11.5
2022-12-29T09:29:07.632Z,10.3
2022-12-29T09:30:14.885Z,10.7
2022-12-29T09:31:22.358Z,10.8
2022-12-29T09:32:33.509Z,10
2022-12-29T09:33:36.323Z,10.4
2022-12-29T09:34:43.245Z,11.5
2022-12-29T09:35:50.369Z,10.1
2022-12-29T09:36:57.718Z,11.7
2022-12-29T09:38:05.011Z,10.3
2022-12-29T09:39:11.914Z,10.9
2022-12-29T09:40:20.175Z,9.6
2022-12-29T09:41:32.138Z,11.3
2022-12-29T09:42:44.543Z,11.1
2022-12-29T09:43:57.060Z,10.1
2022-12-29T09:45:07.591Z,10.6
2022-12-29T09:46:14.951Z,11.5
2022-12-29T09:47:30.233Z,10.7
2022-12-29T09:48:38.193Z,11.5
2022-12-29T09:49:44.980Z,11.5
2022-12-29T09:50:57.421Z,11.2
2022-12-29T09:52:06.315Z,12.8
2022-12-29T09:53:23.668Z,12.9
2022-12-29T09:54:36.848Z,12.2
2022-12-29T09:55:55.918Z,11.4
2022-12-29T09:57:02.976Z,15.1
2022-12-29T09:58:13.012Z,13.7
2022-12-29T09:59:30.317Z,14.5
2022-12-29T10:00:43.104Z,14.6
2022-12-29T10:02:00.119Z,14
2022-12-29T10:03:12.080Z,12.9
2022-12-29T10:04:19.368Z,13
2022-12-29T10:05:26.208Z,12.8
2022-12-29T10:06:56.366Z,11.8
2022-12-29T10:07:52.577Z,12.9
2022-12-29T10:08:59.256Z,10.1
2022-12-29T10:10:12.286Z,11.8
2022-12-29T10:11:28.141Z,12.5
2022-12-29T10:12:40.744Z,12.4
2022-12-29T10:13:55.805Z,11.9
2022-12-29T10:15:13.035Z,12.3
2022-12-29T10:16:23.694Z,10.8
2022-12-29T10:17:32.826Z,10.4
2022-12-29T10:18:47.802Z,10.3
2022-12-29T10:20:05.136Z,10
2022-12-29T10:21:22.301Z,9.3
2022-12-29T10:22:37.216Z,9.4
2022-12-29T10:23:55.220Z,9.8
2022-12-29T10:25:01.997Z,10
2022-12-29T10:26:17.214Z,9.9
2022-12-29T10:27:24.666Z,9.9
2022-12-29T10:28:31.729Z,9.8
2022-12-29T10:29:45.158Z,9.7
2022-12-29T10:30:52.377Z,10.3
2022-12-29T10:31:59.864Z,10.1
2022-12-29T10:33:07.128Z,10.3
2022-12-29T10:34:14.134Z,9.3
2022-12-29T10:35:26.421Z,10.2
2022-12-29T10:36:39.753Z,10.7
2022-12-29T10:37:46.917Z,10.5
2022-12-29T10:38:59.017Z,10.3
2022-12-29T10:40:07.108Z,10.8
2022-12-29T10:41:22.317Z,10.1
2022-12-29T10:42:32.441Z,10.1
2022-12-29T10:43:39.650Z,10.1
2022-12-29T10:44:49.913Z,10.7
2022-12-29T10:45:59.673Z,10.4
2022-12-29T10:47:08.657Z,11.5
2022-12-29T10:48:18.401Z,11.1
2022-12-29T10:49:31.093Z,11
2022-12-29T10:50:38.562Z,12.9
2022-12-29T10:51:46.616Z,13.8
2022-12-29T10:52:54.523Z,12.5
2022-12-29T10:54:02.929Z,11.6
2022-12-29T10:55:10.365Z,12.3
2022-12-29T10:56:17.305Z,12.7
2022-12-29T10:57:35.083Z,12.6
2022-12-29T10:58:49.352Z,13
2022-12-29T10:59:53.374Z,13.1
2022-12-29T11:01:02.587Z,12.6
2022-12-29T11:02:09.904Z,12.6
2022-12-29T11:03:21.955Z,12.7
2022-12-29T11:04:39.627Z,13.5
2022-12-29T11:05:54.532Z,13.5
2022-12-29T11:07:09.493Z,13.4
2022-12-29T11:08:15.813Z,14.1
2022-12-29T11:09:41.866Z,14.5
2022-12-29T11:10:37.698Z,15.2
2022-12-29T11:11:45.700Z,14.6
2022-12-29T11:12:53.895Z,15.3
2022-12-29T11:14:06.382Z,13.9
2022-12-29T11:15:22.253Z,13.1
2022-12-29T11:16:30.003Z,12.4
2022-12-29T11:17:37.178Z,13.2
2022-12-29T11:18:51.236Z,12.2
2022-12-29T11:19:58.515Z,12
2022-12-29T11:21:06.497Z,11.7
2022-12-29T11:22:25.280Z,11.1
2022-12-29T11:23:33.542Z,10.9
2022-12-29T11:24:40.726Z,11.5
2022-12-29T11:25:48.921Z,11.1
2022-12-29T11:27:06.167Z,11.2
2022-12-29T11:28:13.468Z,12.4
2022-12-29T11:29:20.695Z,11.9
2022-12-29T11:30:27.577Z,11.8
2022-12-29T11:31:34.896Z,11.1
2022-12-29T11:32:47.314Z,12.3
2022-12-29T11:33:54.782Z,12.6
2022-12-29T11:35:01.779Z,12.3
2022-12-29T11:36:09.439Z,11.8
2022-12-29T11:37:19.452Z,11.8
2022-12-29T11:38:34.676Z,11.8
2022-12-29T11:39:42.696Z,12
2022-12-29T11:41:00.185Z,12.2
2022-12-29T11:42:08.749Z,12.8
2022-12-29T11:43:15.939Z,12.9
2022-12-29T11:44:29.259Z,13.1
2022-12-29T11:45:36.437Z,12.8
2022-12-29T11:46:43.416Z,12.4
2022-12-29T11:47:50.591Z,12.7
2022-12-29T11:48:57.719Z,12.4
2022-12-29T11:50:05.082Z,14.3
2022-12-29T11:51:12.595Z,13.7
2022-12-29T11:52:28.825Z,11.8
2022-12-29T11:53:36.812Z,13
2022-12-29T11:54:44.889Z,13.1
2022-12-29T11:55:52.158Z,13.4
2022-12-29T11:57:02.539Z,12.5
2022-12-29T11:58:16.008Z,13
2022-12-29T11:59:23.254Z,12.1
2022-12-29T12:00:34.322Z,11.8
2022-12-29T12:01:41.783Z,12.2
2022-12-29T12:02:49.500Z,11.8
2022-12-29T12:04:05.477Z,12.6
2022-12-29T12:05:12.461Z,11.6
2022-12-29T12:06:23.064Z,11.9
2022-12-29T12:07:30.253Z,12.5
2022-12-29T12:08:43.425Z,11.8
2022-12-29T12:09:53.603Z,11.9
2022-12-29T12:11:04.065Z,12.2
2022-12-29T12:12:14.010Z,12.1
2022-12-29T12:13:29.072Z,12.3
2022-12-29T12:14:35.942Z,10.9
2022-12-29T12:15:46.841Z,11.3
2022-12-29T12:16:54.272Z,12.2
2022-12-29T12:18:04.855Z,11.7
2022-12-29T12:19:22.219Z,11.9
2022-12-29T12:20:33.146Z,12.5
2022-12-29T12:21:45.306Z,11.8
2022-12-29T12:22:47.803Z,12.6
2022-12-29T12:24:03.137Z,11.9
2022-12-29T12:25:20.720Z,11.9
2022-12-29T12:26:28.666Z,12
2022-12-29T12:27:38.613Z,12
2022-12-29T12:28:45.659Z,13
2022-12-29T12:29:57.868Z,14.5
2022-12-29T12:31:15.583Z,14.7
2022-12-29T12:32:25.752Z,14.7
2022-12-29T12:33:43.952Z,14.4
2022-12-29T12:34:51.897Z,15.3
2022-12-29T12:35:59.088Z,15.1
2022-12-29T12:37:17.451Z,16.9
2022-12-29T12:38:34.995Z,16.3
2022-12-29T12:39:45.595Z,16.8
2022-12-29T12:41:00.924Z,19.2
2022-12-29T12:42:13.300Z,14.9
2022-12-29T12:43:25.540Z,12.8
2022-12-29T12:44:33.309Z,10.8
2022-12-29T12:45:47.039Z,11.9
2022-12-29T12:46:59.492Z,11.6
2022-12-29T12:48:16.629Z,11.8
2022-12-29T12:49:29.376Z,12.6
2022-12-29T12:50:46.721Z,11.9
2022-12-29T12:52:05.350Z,11.4
2022-12-29T12:53:21.293Z,11.3
2022-12-29T12:54:38.806Z,11
2022-12-29T12:55:54.040Z,11.1
2022-12-29T12:57:06.116Z,11.4
2022-12-29T12:58:24.004Z,11.5
2022-12-29T12:59:37.523Z,11.8
2022-12-29T13:00:49.792Z,11.5
2022-12-29T13:02:02.962Z,12.5
2022-12-29T13:03:21.208Z,11.1
2022-12-29T13:04:28.165Z,11.4
2022-12-29T13:05:43.210Z,11.7
2022-12-29T13:06:58.402Z,11.8
2022-12-29T13:08:15.938Z,13.6
2022-12-29T13:09:33.429Z,11.9
2022-12-29T13:10:52.949Z,12.4
2022-12-29T13:11:58.474Z,12
2022-12-29T13:13:10.658Z,11.7
2022-12-29T13:14:27.910Z,12.2
2022-12-29T13:15:45.257Z,12.5
2022-12-29T13:17:02.909Z,11.6
2022-12-29T13:18:13.603Z,11.6
2022-12-29T13:19:29.309Z,10.9
2022-12-29T13:20:41.885Z,10.9
2022-12-29T13:21:58.894Z,10.8
2022-12-29T13:23:06.700Z,12.1
2022-12-29T13:24:18.841Z,12.8
2022-12-29T13:25:30.978Z,11.8
2022-12-29T13:26:38.918Z,11.6
2022-12-29T13:27:48.462Z,12
2022-12-29T13:28:55.869Z,13
2022-12-29T13:30:08.613Z,12.4
2022-12-29T13:31:23.836Z,14.4
2022-12-29T13:32:41.196Z,12.9
2022-12-29T13:33:56.415Z,12.3
2022-12-29T13:35:14.590Z,14.6
2022-12-29T13:36:28.042Z,13.8
2022-12-29T13:37:39.268Z,13.1
2022-12-29T13:38:48.969Z,15.1
2022-12-29T13:39:56.050Z,15.1
2022-12-29T13:41:03.261Z,14.3
2022-12-29T13:42:10.280Z,15.4
2022-12-29T13:43:17.652Z,15
2022-12-29T13:44:24.593Z,14.8
2022-12-29T13:45:31.733Z,14.8
2022-12-29T13:46:38.873Z,14.5
2022-12-29T13:47:46.001Z,13.2
2022-12-29T13:49:01.436Z,12.2
2022-12-29T13:50:10.889Z,12.3
2022-12-29T13:51:20.261Z,13
2022-12-29T13:52:25.316Z,13.5
2022-12-29T13:53:40.460Z,12.6
2022-12-29T13:54:57.738Z,15.2
2022-12-29T13:56:04.620Z,14.2
2022-12-29T13:57:11.651Z,14.3
2022-12-29T13:58:23.804Z,13.5
2022-12-29T13:59:42.444Z,14
2022-12-29T14:00:55.555Z,14
2022-12-29T14:02:02.742Z,15.2
2022-12-29T14:03:17.828Z,15
2022-12-29T14:04:32.572Z,14.5
2022-12-29T14:05:39.899Z,13.9
2022-12-29T14:06:46.883Z,13
2022-12-29T14:08:04.403Z,12.4
2022-12-29T14:09:11.578Z,13.2
2022-12-29T14:10:28.949Z,13.6
2022-12-29T14:11:41.776Z,13.5
2022-12-29T14:12:48.967Z,14.3
2022-12-29T14:13:56.192Z,14
2022-12-29T14:15:03.407Z,14.4
2022-12-29T14:16:13.414Z,14.9
2022-12-29T14:17:31.103Z,16
2022-12-29T14:18:38.308Z,16.2
2022-12-29T14:19:45.466Z,14.4
2022-12-29T14:20:52.511Z,16.7
2022-12-29T14:22:03.271Z,16.1
2022-12-29T14:23:10.260Z,16.3
2022-12-29T14:24:17.570Z,17.2
2022-12-29T14:25:29.637Z,16.8
2022-12-29T14:26:46.950Z,17.3
2022-12-29T14:27:54.133Z,16.9
2022-12-29T14:29:04.759Z,17.5
2022-12-29T14:30:18.839Z,18.4
2022-12-29T14:31:36.327Z,24.5
2022-12-29T14:32:43.451Z,23.5
2022-12-29T14:34:00.833Z,22.3
2022-12-29T14:35:10.811Z,24
2022-12-29T14:36:28.179Z,20
2022-12-29T14:37:38.338Z,19.3
2022-12-29T14:38:45.625Z,17.7
2022-12-29T14:39:52.659Z,14.5
2022-12-29T14:41:12.212Z,14
2022-12-29T14:42:22.555Z,15.5
2022-12-29T14:43:29.644Z,21.2
2022-12-29T14:44:36.734Z,18
2022-12-29T14:45:54.035Z,20.1
2022-12-29T14:47:03.850Z,15
2022-12-29T14:48:10.829Z,13
2022-12-29T14:49:25.880Z,12.4
2022-12-29T14:50:33.097Z,11.6
2022-12-29T14:51:45.407Z,11.6
2022-12-29T14:52:56.731Z,11.9
2022-12-29T14:54:02.532Z,13.5
2022-12-29T14:55:20.005Z,14.2
2022-12-29T14:56:33.126Z,14.4
2022-12-29T14:57:40.326Z,14.1
2022-12-29T14:58:47.528Z,15.5
2022-12-29T14:59:59.993Z,16.3
2022-12-29T15:01:12.464Z,19
2022-12-29T15:02:23.124Z,17.8
2022-12-29T15:03:30.211Z,22
2022-12-29T15:04:38.263Z,21.7
2022-12-29T15:05:45.478Z,22.3
2022-12-29T15:06:55.301Z,23.7
2022-12-29T15:08:02.240Z,23.4
2022-12-29T15:09:09.415Z,25
2022-12-29T15:10:16.551Z,22
2022-12-29T15:11:23.803Z,20.8
2022-12-29T15:12:41.729Z,16.4
2022-12-29T15:13:54.151Z,17.3
2022-12-29T15:15:01.260Z,16.4
2022-12-29T15:16:18.790Z,15.2
2022-12-29T15:17:28.874Z,15.6
2022-12-29T15:18:35.808Z,15.5
2022-12-29T15:19:42.884Z,16.3
2022-12-29T15:20:50.039Z,17
2022-12-29T15:21:57.415Z,19.7
2022-12-29T15:23:04.257Z,19.1
2022-12-29T15:24:13.883Z,21
2022-12-29T15:25:21.132Z,21.6
2022-12-29T15:26:28.492Z,22.9
2022-12-29T15:27:40.856Z,24.7
2022-12-29T15:28:48.049Z,24.5
2022-12-29T15:29:55.167Z,22.5
2022-12-29T15:31:02.390Z,25.6
2022-12-29T15:32:09.388Z,25.9
2022-12-29T15:33:19.116Z,26.4
2022-12-29T15:34:26.330Z,27.2
2022-12-29T15:35:33.381Z,26.7
2022-12-29T15:36:40.452Z,27.9
2022-12-29T15:37:47.929Z,28.3
2022-12-29T15:38:55.159Z,28.8
2022-12-29T15:40:02.261Z,27
2022-12-29T15:41:09.444Z,26
2022-12-29T15:42:25.214Z,25.2
2022-12-29T15:43:46.850Z,23.6
2022-12-29T15:45:10.076Z,22.1
2022-12-29T15:46:06.962Z,19.8
2022-12-29T15:47:14.048Z,20.1
2022-12-29T15:48:21.149Z,20.2